Time;durP1;ratioP1;P1;durP2;ratioP2;P2;SDS_P1;SDS_P2;PMS_P1;PMS_P2;Temp;Humidity;BMP_temperature;BMP_pressure;BME280_temperature;BME280_humidity;BME280_pressure;Samples;Min_cycle;Max_cycle;Signal;HPM_P1;HPM_P2
2022/02/23 00:01:36;;;;;;;24.55;5.20;;;;;;;;;;5085677;28;20049;-68
2022/02/23 00:04:03;;;;;;;34.67;6.03;;;;;;;;;;5085520;28;20065;-68
2022/02/23 00:06:29;;;;;;;28.05;4.65;;;;;;;;;;5066062;28;20105;-68
2022/02/23 00:08:55;;;;;;;30.50;5.05;;;;;;;;;;5065383;28;20053;-69
2022/02/23 00:11:22;;;;;;;37.55;4.97;;;;;;;;;;5081244;28;20053;-68
2022/02/23 00:13:48;;;;;;;28.30;5.18;;;;;;;;;;5080824;28;20083;-69
2022/02/23 00:16:14;;;;;;;28.95;5.07;;;;;;;;;;5065184;28;20532;-69
2022/02/23 00:18:40;;;;;;;29.15;5.57;;;;;;;;;;5068930;28;20040;-68
2022/02/23 00:21:06;;;;;;;38.40;7.18;;;;;;;;;;5073901;28;20080;-69
2022/02/23 00:23:32;;;;;;;27.58;5.50;;;;;;;;;;5083936;28;20059;-68
2022/02/23 00:25:58;;;;;;;28.67;5.88;;;;;;;;;;5085157;28;20049;-69
2022/02/23 00:28:25;;;;;;;30.70;4.55;;;;;;;;;;5084056;28;20490;-68
2022/02/23 00:30:51;;;;;;;33.05;7.07;;;;;;;;;;5085118;28;20056;-69
2022/02/23 00:33:17;;;;;;;31.13;6.13;;;;;;;;;;5077831;28;20100;-68
2022/02/23 00:35:43;;;;;;;33.33;6.38;;;;;;;;;;5065012;28;20053;-69
2022/02/23 00:38:09;;;;;;;29.65;5.45;;;;;;;;;;5064787;28;20045;-68
2022/02/23 00:40:35;;;;;;;29.45;5.50;;;;;;;;;;5080376;28;20048;-68
2022/02/23 00:43:01;;;;;;;28.55;5.72;;;;;;;;;;5080386;28;20045;-68
2022/02/23 00:45:27;;;;;;;35.88;5.53;;;;;;;;;;5065968;28;20055;-69
2022/02/23 00:47:53;;;;;;;30.55;4.85;;;;;;;;;;5080178;28;20053;-69
2022/02/23 00:50:20;;;;;;;24.75;5.88;;;;;;;;;;5064903;28;20044;-68
2022/02/23 00:52:46;;;;;;;37.72;6.45;;;;;;;;;;5082030;28;20068;-68
2022/02/23 00:55:13;;;;;;;28.45;5.85;;;;;;;;;;5083805;28;20049;-68
2022/02/23 00:57:39;;;;;;;25.98;5.65;;;;;;;;;;5084684;28;20044;-68
2022/02/23 01:00:06;;;;;;;42.45;5.95;;;;;;;;;;5083038;28;20545;-68
2022/02/23 01:02:32;;;;;;;31.08;4.05;;;;;;;;;;5084438;28;20058;-68
2022/02/23 01:04:58;;;;;;;40.75;6.32;;;;;;;;;;5085070;28;20052;-68
2022/02/23 01:07:24;;;;;;;38.00;5.35;;;;;;;;;;5082929;28;20075;-69
2022/02/23 01:09:50;;;;;;;25.02;4.30;;;;;;;;;;5073645;28;20109;-68
2022/02/23 01:12:16;;;;;;;33.05;4.75;;;;;;;;;;5064372;28;20452;-68
2022/02/23 01:14:43;;;;;;;19.23;5.30;;;;;;;;;;5064355;28;20048;-68
2022/02/23 01:17:10;;;;;;;27.92;4.75;;;;;;;;;;5079824;28;20040;-68
2022/02/23 01:19:36;;;;;;;33.38;3.92;;;;;;;;;;5087677;28;20045;-68
2022/02/23 01:22:02;;;;;;;35.42;5.20;;;;;;;;;;5082426;28;20048;-68
2022/02/23 01:24:28;;;;;;;25.05;5.47;;;;;;;;;;5083988;28;20048;-68
2022/02/23 01:26:54;;;;;;;33.88;5.53;;;;;;;;;;5083016;28;20049;-68
2022/02/23 01:29:20;;;;;;;36.60;4.75;;;;;;;;;;5078945;28;20048;-68
2022/02/23 01:31:47;;;;;;;41.08;5.93;;;;;;;;;;5063996;28;20049;-68
2022/02/23 01:34:13;;;;;;;28.55;4.70;;;;;;;;;;5064601;28;20152;-68
2022/02/23 01:36:39;;;;;;;27.77;4.78;;;;;;;;;;5063569;28;20072;-68
2022/02/23 01:39:05;;;;;;;29.83;4.80;;;;;;;;;;5066341;28;20037;-69
2022/02/23 01:41:31;;;;;;;28.02;4.40;;;;;;;;;;5083800;28;20044;-68
2022/02/23 01:43:57;;;;;;;23.27;5.07;;;;;;;;;;5084352;28;20041;-69
2022/02/23 01:46:23;;;;;;;35.38;5.03;;;;;;;;;;5084513;28;20139;-68
2022/02/23 01:48:49;;;;;;;35.00;5.25;;;;;;;;;;5083583;28;20036;-68
2022/02/23 01:51:15;;;;;;;26.30;4.18;;;;;;;;;;5063282;28;20053;-68
2022/02/23 01:53:42;;;;;;;34.75;4.88;;;;;;;;;;5063549;28;20417;-69
2022/02/23 01:56:08;;;;;;;26.35;4.63;;;;;;;;;;5063735;28;20276;-69
2022/02/23 01:58:34;;;;;;;26.92;4.57;;;;;;;;;;5085792;28;20044;-69
2022/02/23 02:01:00;;;;;;;25.30;5.68;;;;;;;;;;5065735;28;20073;-68
2022/02/23 02:03:26;;;;;;;19.60;3.90;;;;;;;;;;5063863;28;20049;-68
2022/02/23 02:05:52;;;;;;;30.00;5.50;;;;;;;;;;5064540;28;20102;-69
2022/02/23 02:08:18;;;;;;;32.83;5.72;;;;;;;;;;5067751;28;20100;-69
2022/02/23 02:10:44;;;;;;;30.63;3.97;;;;;;;;;;5100484;28;20076;-68
2022/02/23 02:13:11;;;;;;;28.77;5.15;;;;;;;;;;5103647;28;20084;-69
2022/02/23 02:15:37;;;;;;;34.25;4.95;;;;;;;;;;5087032;28;20056;-69
2022/02/23 02:18:03;;;;;;;39.67;4.80;;;;;;;;;;5087683;28;20053;-69
2022/02/23 02:20:29;;;;;;;26.13;6.05;;;;;;;;;;5070607;28;20446;-69
2022/02/23 02:22:55;;;;;;;18.75;4.68;;;;;;;;;;5082247;28;20051;-68
2022/02/23 02:25:21;;;;;;;26.95;4.22;;;;;;;;;;5067620;28;20092;-69
2022/02/23 02:27:47;;;;;;;20.02;5.00;;;;;;;;;;5091449;28;20059;-69
2022/02/23 02:30:14;;;;;;;30.00;4.40;;;;;;;;;;5086815;28;20063;-69
2022/02/23 02:32:40;;;;;;;36.03;5.32;;;;;;;;;;5087305;28;20103;-69
2022/02/23 02:35:06;;;;;;;22.17;3.80;;;;;;;;;;5087406;28;20056;-69
2022/02/23 02:37:32;;;;;;;22.75;4.50;;;;;;;;;;5100826;28;20127;-69
2022/02/23 02:39:58;;;;;;;28.33;4.40;;;;;;;;;;5086952;28;20044;-68
2022/02/23 02:42:24;;;;;;;22.42;4.45;;;;;;;;;;5087610;28;20043;-69
2022/02/23 02:44:51;;;;;;;25.30;3.63;;;;;;;;;;5087354;28;20044;-69
2022/02/23 02:47:19;;;;;;;27.13;4.30;;;;;;;;;;5077611;28;20091;-69
2022/02/23 02:49:45;;;;;;;24.27;5.15;;;;;;;;;;5084270;28;20052;-69
2022/02/23 02:52:11;;;;;;;25.85;4.82;;;;;;;;;;5086645;28;20453;-69
2022/02/23 02:54:38;;;;;;;28.15;5.60;;;;;;;;;;5086833;28;20052;-69
2022/02/23 02:57:05;;;;;;;32.92;6.90;;;;;;;;;;5079623;28;20048;-69
2022/02/23 02:59:31;;;;;;;34.17;4.70;;;;;;;;;;5066744;28;20041;-69
2022/02/23 03:01:58;;;;;;;21.63;4.70;;;;;;;;;;5082192;28;20492;-67
2022/02/23 03:04:24;;;;;;;30.88;4.68;;;;;;;;;;5082354;28;20072;-69
2022/02/23 03:06:50;;;;;;;22.70;4.55;;;;;;;;;;5075403;28;20354;-69
2022/02/23 03:09:16;;;;;;;41.67;5.85;;;;;;;;;;5066448;28;20052;-69
2022/02/23 03:11:42;;;;;;;30.23;4.85;;;;;;;;;;5066910;28;20041;-69
2022/02/23 03:14:08;;;;;;;36.03;6.15;;;;;;;;;;5066791;28;20053;-69
2022/02/23 03:16:34;;;;;;;19.40;3.58;;;;;;;;;;5086353;28;20096;-69
2022/02/23 03:19:00;;;;;;;27.38;4.72;;;;;;;;;;5084591;28;20405;-69
2022/02/23 03:21:26;;;;;;;37.72;6.50;;;;;;;;;;5085910;28;20032;-69
2022/02/23 03:23:53;;;;;;;36.47;5.25;;;;;;;;;;5085258;28;20229;-69
2022/02/23 03:26:19;;;;;;;30.42;4.88;;;;;;;;;;5084270;28;20127;-69
2022/02/23 03:28:45;;;;;;;28.50;4.45;;;;;;;;;;5066471;28;20100;-69
2022/02/23 03:31:11;;;;;;;35.28;5.68;;;;;;;;;;5066120;28;20088;-69
2022/02/23 03:33:42;;;;;;;37.78;6.82;;;;;;;;;;5081547;28;20045;-70
2022/02/23 03:36:12;;;;;;;28.60;4.90;;;;;;;;;;5079930;28;20056;-70
2022/02/23 03:38:39;;;;;;;28.50;5.60;;;;;;;;;;5086137;28;20040;-69
2022/02/23 03:41:05;;;;;;;33.10;5.75;;;;;;;;;;5086208;28;20594;-69
2022/02/23 03:43:31;;;;;;;37.13;5.00;;;;;;;;;;5086279;28;20119;-69
2022/02/23 03:45:57;;;;;;;38.90;7.28;;;;;;;;;;5073369;28;20124;-69
2022/02/23 03:48:23;;;;;;;32.38;5.30;;;;;;;;;;5081495;28;20080;-69
2022/02/23 03:50:49;;;;;;;22.20;4.82;;;;;;;;;;5065178;28;20250;-69
2022/02/23 03:53:16;;;;;;;30.40;5.07;;;;;;;;;;5065722;28;20132;-68
2022/02/23 03:55:42;;;;;;;22.52;5.10;;;;;;;;;;5090432;28;20600;-69
2022/02/23 03:58:09;;;;;;;28.05;4.78;;;;;;;;;;5085833;28;20111;-69
2022/02/23 04:00:35;;;;;;;27.25;5.18;;;;;;;;;;5085959;28;20032;-69
2022/02/23 04:03:01;;;;;;;34.03;5.78;;;;;;;;;;5084602;28;20108;-69
2022/02/23 04:05:30;;;;;;;24.67;5.15;;;;;;;;;;5069656;28;20075;-70
2022/02/23 04:07:56;;;;;;;29.55;5.88;;;;;;;;;;5073510;28;20044;-69
2022/02/23 04:10:23;;;;;;;35.83;5.30;;;;;;;;;;5100987;28;20048;-69
2022/02/23 04:12:49;;;;;;;33.50;5.43;;;;;;;;;;5084199;28;20147;-70
2022/02/23 04:15:16;;;;;;;27.67;4.93;;;;;;;;;;5085625;28;20123;-69
2022/02/23 04:17:42;;;;;;;36.00;5.25;;;;;;;;;;5095652;28;20305;-69
2022/02/23 04:20:08;;;;;;;28.70;4.72;;;;;;;;;;5080922;28;20112;-69
2022/02/23 04:22:35;;;;;;;26.95;5.85;;;;;;;;;;5080590;28;20508;-70
2022/02/23 04:25:01;;;;;;;28.20;6.07;;;;;;;;;;5080769;28;20048;-71
2022/02/23 04:27:27;;;;;;;31.95;4.75;;;;;;;;;;5067682;28;20048;-70
2022/02/23 04:29:53;;;;;;;29.38;4.25;;;;;;;;;;5083075;28;20059;-69
2022/02/23 04:32:19;;;;;;;27.80;5.70;;;;;;;;;;5085073;28;20405;-69
2022/02/23 04:34:47;;;;;;;27.08;5.35;;;;;;;;;;5085504;28;20048;-70
2022/02/23 04:37:14;;;;;;;30.50;4.93;;;;;;;;;;5083851;28;20138;-70
2022/02/23 04:39:40;;;;;;;30.73;5.65;;;;;;;;;;5080188;28;20067;-70
2022/02/23 04:42:09;;;;;;;29.15;4.45;;;;;;;;;;5064774;28;20048;-70
2022/02/23 04:44:35;;;;;;;28.88;4.20;;;;;;;;;;5064928;28;20472;-70
2022/02/23 04:47:02;;;;;;;27.52;4.45;;;;;;;;;;5064683;28;20044;-69
2022/02/23 04:49:28;;;;;;;30.77;5.30;;;;;;;;;;5085165;28;20056;-69
2022/02/23 04:51:54;;;;;;;33.58;6.18;;;;;;;;;;5082706;28;20048;-70
2022/02/23 04:54:20;;;;;;;30.60;7.13;;;;;;;;;;5083142;28;20048;-70
2022/02/23 04:56:47;;;;;;;26.17;5.22;;;;;;;;;;5083214;28;20048;-70
2022/02/23 04:59:13;;;;;;;39.88;5.28;;;;;;;;;;5064541;28;20053;-70
2022/02/23 05:01:39;;;;;;;33.42;4.53;;;;;;;;;;5064395;28;20045;-70
2022/02/23 05:04:05;;;;;;;32.13;5.60;;;;;;;;;;5065000;28;20053;-70
2022/02/23 05:06:31;;;;;;;31.48;4.57;;;;;;;;;;5064013;28;20045;-70
2022/02/23 05:08:58;;;;;;;30.15;4.00;;;;;;;;;;5097355;28;20112;-70
2022/02/23 05:11:24;;;;;;;34.63;5.95;;;;;;;;;;5083174;28;20048;-70
2022/02/23 05:13:52;;;;;;;47.47;7.25;;;;;;;;;;5084625;28;20052;-70
2022/02/23 05:16:18;;;;;;;;;;;;;;;;;;5083875;28;20094;-70
2022/02/23 05:18:44;;;;;;;35.00;4.65;;;;;;;;;;5075219;28;19927;-70
2022/02/23 05:21:10;;;;;;;32.80;5.70;;;;;;;;;;5063494;28;20292;-70
2022/02/23 05:23:36;;;;;;;26.50;4.28;;;;;;;;;;5086019;28;20106;-70
2022/02/23 05:26:02;;;;;;;30.52;5.53;;;;;;;;;;5083026;28;20044;-70
2022/02/23 05:28:29;;;;;;;31.20;4.55;;;;;;;;;;5085774;28;20127;-70
2022/02/23 05:30:57;;;;;;;35.03;5.05;;;;;;;;;;5072913;28;20044;-70
2022/02/23 05:33:23;;;;;;;;;;;;;;;;;;5080858;28;20048;-70
2022/02/23 05:35:49;;;;;;;38.55;4.72;;;;;;;;;;5066374;28;19928;-70
2022/02/23 05:38:15;;;;;;;38.95;5.43;;;;;;;;;;5092681;28;20048;-70
2022/02/23 05:40:42;;;;;;;33.78;5.68;;;;;;;;;;5081074;28;20055;-70
2022/02/23 05:43:08;;;;;;;38.65;4.40;;;;;;;;;;5063972;28;20072;-70
2022/02/23 05:45:34;;;;;;;20.05;4.55;;;;;;;;;;5064079;28;20048;-70
2022/02/23 05:48:00;;;;;;;28.75;4.85;;;;;;;;;;5063810;28;20121;-70
2022/02/23 05:50:26;;;;;;;27.55;3.63;;;;;;;;;;5070760;28;20148;-70
2022/02/23 05:52:53;;;;;;;35.78;5.03;;;;;;;;;;5066025;28;20091;-70
2022/02/23 05:55:19;;;;;;;33.42;4.38;;;;;;;;;;5084226;28;20048;-70
2022/02/23 05:57:45;;;;;;;30.27;4.03;;;;;;;;;;5091121;28;20052;-70
2022/02/23 06:00:11;;;;;;;26.40;4.25;;;;;;;;;;5082668;28;20119;-69
2022/02/23 06:02:37;;;;;;;25.92;4.85;;;;;;;;;;5083383;28;20085;-69
2022/02/23 06:05:03;;;;;;;33.40;4.32;;;;;;;;;;5081813;28;20064;-70
2022/02/23 06:07:30;;;;;;;36.13;4.80;;;;;;;;;;5082433;28;20126;-69
2022/02/23 06:09:56;;;;;;;16.33;3.28;;;;;;;;;;5079631;28;20048;-69
2022/02/23 06:12:22;;;;;;;30.17;3.92;;;;;;;;;;5083225;28;20055;-70
2022/02/23 06:14:50;;;;;;;24.08;4.45;;;;;;;;;;5098680;28;20227;-70
2022/02/23 06:17:16;;;;;;;25.70;4.03;;;;;;;;;;5072949;28;20120;-69
2022/02/23 06:19:42;;;;;;;28.85;4.15;;;;;;;;;;5073592;28;20450;-70
2022/02/23 06:22:09;;;;;;;25.90;4.18;;;;;;;;;;5081504;28;20045;-71
2022/02/23 06:24:35;;;;;;;27.33;5.53;;;;;;;;;;5083443;28;20423;-70
2022/02/23 06:27:01;;;;;;;25.17;5.55;;;;;;;;;;5075302;28;20048;-71
2022/02/23 06:29:27;;;;;;;24.25;4.20;;;;;;;;;;5063172;28;20125;-71
2022/02/23 06:32:12;;;;;;;29.38;4.63;;;;;;;;;;5079032;28;20059;-71
2022/02/23 06:34:38;;;;;;;40.20;4.65;;;;;;;;;;5078875;28;20135;-71
2022/02/23 06:37:06;;;;;;;28.23;4.30;;;;;;;;;;5062957;28;20045;-71
2022/02/23 06:39:33;;;;;;;29.40;5.10;;;;;;;;;;5062166;28;20044;-71
2022/02/23 06:42:04;;;;;;;38.25;6.18;;;;;;;;;;5063190;28;20132;-70
2022/02/23 06:44:31;;;;;;;27.00;4.40;;;;;;;;;;5081474;28;20044;-70
2022/02/23 06:47:00;;;;;;;30.50;5.38;;;;;;;;;;5075429;28;20526;-70
2022/02/23 06:49:27;;;;;;;36.30;4.55;;;;;;;;;;5067728;28;20432;-70
2022/02/23 06:51:57;;;;;;;24.80;4.43;;;;;;;;;;5062537;28;20059;-70
2022/02/23 06:54:24;;;;;;;41.55;5.30;;;;;;;;;;5068428;28;20068;-71
2022/02/23 06:56:50;;;;;;;25.80;4.60;;;;;;;;;;5081599;28;20047;-70
2022/02/23 06:59:17;;;;;;;57.00;6.82;;;;;;;;;;5088733;28;20040;-70
2022/02/23 07:01:43;;;;;;;29.08;5.40;;;;;;;;;;5097270;28;20059;-70
2022/02/23 07:04:09;;;;;;;15.95;4.20;;;;;;;;;;5076140;28;20040;-71
2022/02/23 07:06:36;;;;;;;31.13;4.03;;;;;;;;;;5067981;28;20045;-71
2022/02/23 07:09:02;;;;;;;36.35;5.30;;;;;;;;;;5072733;28;20497;-70
2022/02/23 07:11:28;;;;;;;30.60;5.38;;;;;;;;;;5082643;28;20121;-70
2022/02/23 07:13:54;;;;;;;32.97;5.38;;;;;;;;;;5081589;28;20045;-70
2022/02/23 07:16:23;;;;;;;26.70;5.88;;;;;;;;;;5085337;28;20041;-70
2022/02/23 07:18:49;;;;;;;29.38;4.35;;;;;;;;;;5086226;28;20066;-70
2022/02/23 07:21:15;;;;;;;31.50;5.30;;;;;;;;;;5082352;28;20036;-70
2022/02/23 07:23:41;;;;;;;29.63;4.07;;;;;;;;;;5084785;28;20508;-70
2022/02/23 07:26:07;;;;;;;30.38;4.63;;;;;;;;;;5081934;28;21136;-70
2022/02/23 07:28:34;;;;;;;26.20;4.25;;;;;;;;;;5086157;28;20047;-70
2022/02/23 07:31:00;;;;;;;15.23;4.35;;;;;;;;;;5072517;28;20049;-71
2022/02/23 07:33:26;;;;;;;18.85;4.22;;;;;;;;;;5066410;28;20045;-70
2022/02/23 07:35:53;;;;;;;31.33;4.35;;;;;;;;;;5066550;28;20052;-70
2022/02/23 07:38:19;;;;;;;28.63;4.50;;;;;;;;;;5065694;28;20044;-70
2022/02/23 07:40:45;;;;;;;21.67;5.10;;;;;;;;;;5066055;28;20049;-71
2022/02/23 07:43:11;;;;;;;20.23;5.20;;;;;;;;;;5081661;28;20136;-70
2022/02/23 07:45:40;;;;;;;25.30;5.13;;;;;;;;;;5091168;28;20091;-71
2022/02/23 07:48:07;;;;;;;32.40;5.18;;;;;;;;;;5085940;28;20048;-71
2022/02/23 07:50:34;;;;;;;25.90;3.70;;;;;;;;;;5086167;28;20048;-71
2022/02/23 07:53:00;;;;;;;34.20;4.22;;;;;;;;;;5085007;28;20056;-71
2022/02/23 07:55:28;;;;;;;15.95;3.85;;;;;;;;;;5075892;28;20108;-70
2022/02/23 07:57:54;;;;;;;27.77;5.28;;;;;;;;;;5065881;28;20049;-71
2022/02/23 08:00:22;;;;;;;23.33;3.17;;;;;;;;;;5066008;28;20048;-71
2022/02/23 08:02:48;;;;;;;;;;;;;;;;;;5081433;28;20053;-71
2022/02/23 08:05:14;;;;;;;21.92;4.95;;;;;;;;;;5072835;28;19921;-71
2022/02/23 08:07:40;;;;;;;23.02;3.72;;;;;;;;;;5085154;28;20048;-71
2022/02/23 08:10:06;;;;;;;26.45;4.78;;;;;;;;;;5085452;28;20044;-71
2022/02/23 08:12:33;;;;;;;17.38;4.13;;;;;;;;;;5085456;28;20120;-71
2022/02/23 08:19:30;;;;;;;33.05;6.50;;;;;;;;;;5081048;28;20093;-71
2022/02/23 08:20:30;;;;;;;22.05;4.25;;;;;;;;;;5085122;28;20059;-71
2022/02/23 08:22:56;;;;;;;27.83;3.83;;;;;;;;;;5085156;28;20068;-71
2022/02/23 08:25:22;;;;;;;16.02;3.47;;;;;;;;;;5084665;28;20067;-71
2022/02/23 08:27:48;;;;;;;32.42;4.32;;;;;;;;;;5085036;28;20131;-71
2022/02/23 08:30:15;;;;;;;24.30;4.15;;;;;;;;;;5084971;28;20045;-71
2022/02/23 08:32:41;;;;;;;14.48;4.40;;;;;;;;;;5085183;28;20137;-69
2022/02/23 08:35:07;;;;;;;24.42;4.10;;;;;;;;;;5084534;28;20033;-70
2022/02/23 08:37:33;;;;;;;17.13;3.10;;;;;;;;;;5081633;28;20048;-70
2022/02/23 08:39:59;;;;;;;21.50;3.83;;;;;;;;;;5071151;28;20045;-70
2022/02/23 08:42:26;;;;;;;18.30;3.70;;;;;;;;;;5076263;28;20048;-71
2022/02/23 08:44:52;;;;;;;18.73;4.05;;;;;;;;;;5078851;28;20038;-69
2022/02/23 08:47:19;;;;;;;23.23;4.32;;;;;;;;;;5080696;28;20040;-69
2022/02/23 08:49:45;;;;;;;22.02;4.20;;;;;;;;;;5084539;28;20044;-70
2022/02/23 08:52:11;;;;;;;23.67;3.40;;;;;;;;;;5082313;28;20112;-70
2022/02/23 08:54:38;;;;;;;20.95;3.75;;;;;;;;;;5082580;28;20057;-70
2022/02/23 08:57:04;;;;;;;20.95;4.28;;;;;;;;;;5074572;28;20101;-70
2022/02/23 08:59:31;;;;;;;21.25;4.43;;;;;;;;;;5083983;28;20637;-69
2022/02/23 09:01:58;;;;;;;20.13;4.55;;;;;;;;;;5077506;28;20076;-70
2022/02/23 09:04:24;;;;;;;17.40;3.37;;;;;;;;;;5083365;28;20076;-70
2022/02/23 09:06:50;;;;;;;18.70;4.32;;;;;;;;;;5083169;28;20032;-70
2022/02/23 09:09:16;;;;;;;20.83;4.38;;;;;;;;;;5098627;28;20093;-72
2022/02/23 09:11:44;;;;;;;18.48;4.15;;;;;;;;;;5082897;28;20045;-70
2022/02/23 09:14:10;;;;;;;19.65;4.70;;;;;;;;;;5083173;28;20052;-70
2022/02/23 09:16:37;;;;;;;29.13;5.22;;;;;;;;;;5082516;28;20056;-70
2022/02/23 09:19:03;;;;;;;16.45;4.38;;;;;;;;;;5084884;28;20069;-71
2022/02/23 09:21:29;;;;;;;21.42;4.25;;;;;;;;;;5077654;28;20044;-72
2022/02/23 09:23:55;;;;;;;19.45;4.05;;;;;;;;;;5064045;28;20473;-72
2022/02/23 09:26:21;;;;;;;23.35;3.97;;;;;;;;;;5072261;28;20081;-73
2022/02/23 09:28:48;;;;;;;25.63;4.13;;;;;;;;;;5084096;28;20139;-72
2022/02/23 09:31:14;;;;;;;27.08;4.80;;;;;;;;;;5080466;28;20070;-72
2022/02/23 09:33:41;;;;;;;18.70;3.92;;;;;;;;;;5079904;28;20037;-73
2022/02/23 09:36:07;;;;;;;17.98;4.50;;;;;;;;;;5079504;28;20048;-72
2022/02/23 09:38:33;;;;;;;25.25;3.40;;;;;;;;;;5063718;28;20075;-73
2022/02/23 09:41:03;;;;;;;24.33;4.78;;;;;;;;;;5063727;28;20119;-73
2022/02/23 09:43:29;;;;;;;20.95;4.72;;;;;;;;;;5074450;28;20586;-73
2022/02/23 09:45:56;;;;;;;19.55;3.33;;;;;;;;;;5076033;28;20112;-72
2022/02/23 09:48:23;;;;;;;29.60;5.00;;;;;;;;;;5083706;28;20032;-71
2022/02/23 09:50:52;;;;;;;19.48;3.70;;;;;;;;;;5080806;28;20131;-72
2022/02/23 09:53:19;;;;;;;15.73;3.28;;;;;;;;;;5066338;28;20080;-72
2022/02/23 09:55:46;;;;;;;13.98;2.88;;;;;;;;;;5063696;28;20112;-72
2022/02/23 09:58:12;;;;;;;18.73;3.78;;;;;;;;;;5063746;28;20248;-72
2022/02/23 10:00:39;;;;;;;14.27;3.60;;;;;;;;;;5063689;28;20444;-71
2022/02/23 10:03:07;;;;;;;20.02;3.28;;;;;;;;;;5082683;28;20550;-71
2022/02/23 10:05:41;;;;;;;18.25;3.83;;;;;;;;;;5082313;28;20057;-72
2022/02/23 10:08:09;;;;;;;23.40;4.75;;;;;;;;;;5083213;28;20419;-72
2022/02/23 10:10:39;;;;;;;28.65;4.53;;;;;;;;;;5082006;28;20044;-72
2022/02/23 10:13:07;;;;;;;16.15;3.75;;;;;;;;;;5075315;28;20051;-71
2022/02/23 10:15:43;;;;;;;19.98;3.35;;;;;;;;;;5093401;28;20048;-71
2022/02/23 10:18:10;;;;;;;18.23;3.80;;;;;;;;;;5077389;28;20083;-72
2022/02/23 10:20:39;;;;;;;11.65;2.47;;;;;;;;;;5076852;28;20037;-72
2022/02/23 10:23:07;;;;;;;14.45;4.13;;;;;;;;;;5076936;28;20116;-72
2022/02/23 10:25:38;;;;;;;14.85;3.55;;;;;;;;;;5075010;28;20053;-72
2022/02/23 10:28:06;;;;;;;23.02;3.47;;;;;;;;;;5100041;28;20076;-73
2022/02/23 10:30:32;;;;;;;15.93;3.40;;;;;;;;;;5084987;28;20056;-72
2022/02/23 10:33:12;;;;;;;13.23;2.95;;;;;;;;;;5087005;28;20076;-72
2022/02/23 10:35:39;;;;;;;12.30;3.08;;;;;;;;;;5085902;28;20059;-72
2022/02/23 10:38:08;;;;;;;10.65;3.00;;;;;;;;;;5084550;28;20423;-72
2022/02/23 10:40:43;;;;;;;15.93;2.92;;;;;;;;;;5086530;28;20482;-72
2022/02/23 10:43:22;;;;;;;14.90;3.78;;;;;;;;;;5085102;28;20373;-72
2022/02/23 10:45:52;;;;;;;20.92;2.90;;;;;;;;;;5086124;28;20136;-72
2022/02/23 10:48:37;;;;;;;13.48;3.30;;;;;;;;;;5085857;28;20047;-72
2022/02/23 10:51:03;;;;;;;22.55;3.72;;;;;;;;;;5085578;28;20134;-72
2022/02/23 10:53:33;;;;;;;16.38;3.20;;;;;;;;;;5086906;28;20048;-72
2022/02/23 10:56:02;;;;;;;14.40;2.55;;;;;;;;;;5079720;28;20081;-72
2022/02/23 10:58:29;;;;;;;14.05;2.90;;;;;;;;;;5086506;28;20127;-72
2022/02/23 11:00:59;;;;;;;9.40;2.88;;;;;;;;;;5085972;28;20642;-72
2022/02/23 11:03:25;;;;;;;10.10;2.13;;;;;;;;;;5102536;28;20055;-72
2022/02/23 11:05:54;;;;;;;13.98;2.47;;;;;;;;;;5086377;28;20044;-72
2022/02/23 11:08:21;;;;;;;20.00;2.35;;;;;;;;;;5083976;28;20053;-73
2022/02/23 11:10:51;;;;;;;12.13;3.08;;;;;;;;;;5094882;28;20048;-73
2022/02/23 11:13:19;;;;;;;11.40;2.75;;;;;;;;;;5076519;28;20040;-73
2022/02/23 11:15:49;;;;;;;10.93;2.35;;;;;;;;;;5086418;28;20045;-73
2022/02/23 11:18:16;;;;;;;11.45;3.13;;;;;;;;;;5086620;28;20060;-74
2022/02/23 11:20:46;;;;;;;12.23;2.40;;;;;;;;;;5085998;28;20044;-75
2022/02/23 11:23:17;;;;;;;8.48;2.20;;;;;;;;;;5085683;28;20156;-75
2022/02/23 11:25:43;;;;;;;9.90;1.63;;;;;;;;;;5101660;28;20252;-75
2022/02/23 11:28:23;;;;;;;15.85;2.88;;;;;;;;;;5086177;28;20051;-74
2022/02/23 11:30:52;;;;;;;12.38;2.90;;;;;;;;;;5086127;28;20072;-74
2022/02/23 11:33:22;;;;;;;7.25;1.85;;;;;;;;;;5085364;28;20037;-73
2022/02/23 11:35:49;;;;;;;8.43;2.60;;;;;;;;;;5086078;28;20049;-73
2022/02/23 11:38:20;;;;;;;7.93;1.85;;;;;;;;;;5084930;28;20152;-73
2022/02/23 11:40:49;;;;;;;5.75;1.88;;;;;;;;;;5065672;28;20049;-73
2022/02/23 11:43:25;;;;;;;8.15;1.90;;;;;;;;;;5066517;28;20041;-73
2022/02/23 11:45:55;;;;;;;6.50;2.00;;;;;;;;;;5077193;28;20083;-74
2022/02/23 11:48:21;;;;;;;12.05;2.13;;;;;;;;;;5085959;28;20129;-73
2022/02/23 11:51:01;;;;;;;10.88;2.25;;;;;;;;;;5076502;28;20060;-73
2022/02/23 11:53:37;;;;;;;9.38;2.17;;;;;;;;;;5085941;28;20060;-73
2022/02/23 11:56:10;;;;;;;9.02;1.95;;;;;;;;;;5085546;28;20053;-73
2022/02/23 11:58:50;;;;;;;6.50;1.50;;;;;;;;;;5086001;28;20106;-73
2022/02/23 12:01:20;;;;;;;9.80;2.22;;;;;;;;;;5069701;28;20049;-74
2022/02/23 12:04:05;;;;;;;15.10;2.78;;;;;;;;;;5065863;28;20064;-74
2022/02/23 12:06:51;;;;;;;11.02;2.88;;;;;;;;;;5071960;28;20044;-73
2022/02/23 12:09:37;;;;;;;5.82;2.08;;;;;;;;;;5084635;28;20124;-74
2022/02/23 12:12:03;;;;;;;12.32;2.13;;;;;;;;;;5084822;28;20074;-74
2022/02/23 12:14:48;;;;;;;8.43;2.50;;;;;;;;;;5083780;28;20052;-74
2022/02/23 12:17:34;;;;;;;10.23;2.20;;;;;;;;;;5085785;28;20047;-74
2022/02/23 12:20:00;;;;;;;11.38;2.47;;;;;;;;;;5085336;28;20117;-74
2022/02/23 12:22:29;;;;;;;12.18;2.10;;;;;;;;;;5084618;28;20040;-74
2022/02/23 12:24:55;;;;;;;12.60;2.40;;;;;;;;;;5082012;28;20135;-74
2022/02/23 12:27:22;;;;;;;9.93;2.40;;;;;;;;;;5068779;28;20105;-75
2022/02/23 12:29:48;;;;;;;10.25;2.40;;;;;;;;;;5085027;28;20492;-74
2022/02/23 12:32:16;;;;;;;8.45;2.72;;;;;;;;;;5084974;28;20048;-74
2022/02/23 12:34:42;;;;;;;11.68;2.63;;;;;;;;;;5076098;28;20047;-74
2022/02/23 12:37:08;;;;;;;11.80;2.95;;;;;;;;;;5081957;28;20040;-74
2022/02/23 12:39:34;;;;;;;20.80;2.47;;;;;;;;;;5084384;28;20052;-74
2022/02/23 12:42:02;;;;;;;12.23;2.95;;;;;;;;;;5080615;28;20044;-73
2022/02/23 12:44:31;;;;;;;12.43;2.40;;;;;;;;;;5084185;28;20052;-74
2022/02/23 12:47:00;;;;;;;13.32;2.67;;;;;;;;;;5082906;28;20032;-74
2022/02/23 12:49:26;;;;;;;9.55;2.70;;;;;;;;;;5082703;28;20055;-75
2022/02/23 12:51:53;;;;;;;8.18;2.10;;;;;;;;;;5079644;28;20166;-76
2022/02/23 12:54:21;;;;;;;8.65;2.05;;;;;;;;;;5080030;28;20064;-75
2022/02/23 12:56:51;;;;;;;7.28;2.35;;;;;;;;;;5083545;28;20036;-75
2022/02/23 12:59:18;;;;;;;9.18;2.20;;;;;;;;;;5075011;28;20050;-75
2022/02/23 13:01:44;;;;;;;;;;;;;;;;;;5082052;28;20079;-76
2022/02/23 13:04:12;;;;;;;8.18;2.05;;;;;;;;;;5084101;28;19947;-76
2022/02/23 13:06:41;;;;;;;9.27;2.65;;;;;;;;;;5083109;28;20045;-76
2022/02/23 13:09:09;;;;;;;10.18;2.20;;;;;;;;;;5081569;28;20040;-76
2022/02/23 13:11:35;;;;;;;7.65;2.13;;;;;;;;;;5072849;28;20053;-75
2022/02/23 13:14:12;;;;;;;11.15;2.65;;;;;;;;;;5067152;28;20140;-75
2022/02/23 13:16:40;;;;;;;7.82;2.30;;;;;;;;;;5082736;28;20045;-75
2022/02/23 13:19:08;;;;;;;8.25;2.42;;;;;;;;;;5084174;28;20059;-75
2022/02/23 13:21:48;;;;;;;8.18;1.92;;;;;;;;;;5083061;28;20059;-75
2022/02/23 13:24:17;;;;;;;6.15;1.70;;;;;;;;;;5083410;28;20502;-75
2022/02/23 13:26:44;;;;;;;9.02;1.80;;;;;;;;;;5084235;28;20056;-75
2022/02/23 13:29:14;;;;;;;8.60;1.75;;;;;;;;;;5084402;28;20040;-75
2022/02/23 13:31:40;;;;;;;8.80;1.92;;;;;;;;;;5069567;28;20129;-75
2022/02/23 13:34:13;;;;;;;10.83;2.27;;;;;;;;;;5065296;28;20048;-75
2022/02/23 13:36:39;;;;;;;9.65;2.25;;;;;;;;;;5098722;28;20056;-75
2022/02/23 13:39:41;;;;;;;7.28;2.22;;;;;;;;;;5082299;28;20503;-74
2022/02/23 13:42:13;;;;;;;7.97;1.92;;;;;;;;;;5039605;28;20103;-75
2022/02/23 13:44:43;;;;;;;9.18;2.58;;;;;;;;;;5057109;28;20075;-74
2022/02/23 13:47:11;;;;;;;6.85;1.63;;;;;;;;;;5050732;28;20049;-74
2022/02/23 13:49:37;;;;;;;;;;;;;;;;;;5054060;28;20063;-74
2022/02/23 13:52:04;;;;;;;9.25;2.30;;;;;;;;;;5044204;28;19936;-73
2022/02/23 13:54:30;;;;;;;9.02;2.33;;;;;;;;;;5061184;28;20053;-74
2022/02/23 13:56:57;;;;;;;8.38;2.00;;;;;;;;;;5044393;28;20056;-74
2022/02/23 13:59:25;;;;;;;9.87;1.57;;;;;;;;;;5028467;28;20065;-74
2022/02/23 14:02:17;;;;;;;8.13;1.70;;;;;;;;;;5042595;28;20295;-74
2022/02/23 14:04:45;;;;;;;14.75;3.53;;;;;;;;;;5043836;28;20053;-73
2022/02/23 14:07:23;;;;;;;6.88;1.80;;;;;;;;;;5044966;28;20045;-73
2022/02/23 14:09:50;;;;;;;5.57;1.45;;;;;;;;;;5065026;28;20078;-73
2022/02/23 14:12:16;;;;;;;7.32;1.52;;;;;;;;;;5062097;28;20087;-73
2022/02/23 14:14:43;;;;;;;6.93;1.92;;;;;;;;;;5065333;28;20487;-73
2022/02/23 14:17:20;;;;;;;9.02;1.85;;;;;;;;;;5069412;28;20059;-74
2022/02/23 14:19:48;;;;;;;7.95;2.05;;;;;;;;;;5078364;28;20104;-73
2022/02/23 14:22:20;;;;;;;7.63;1.77;;;;;;;;;;5085771;28;20053;-73
2022/02/23 14:24:55;;;;;;;7.80;1.90;;;;;;;;;;5103130;28;20101;-72
2022/02/23 14:27:21;;;;;;;10.45;2.35;;;;;;;;;;5102096;28;20052;-72
2022/02/23 14:29:51;;;;;;;12.82;2.70;;;;;;;;;;5087923;28;20536;-72
2022/02/23 14:32:17;;;;;;;7.70;2.10;;;;;;;;;;5087575;28;20497;-73
2022/02/23 14:34:49;;;;;;;9.98;2.33;;;;;;;;;;5087473;28;20085;-73
2022/02/23 14:37:18;;;;;;;5.95;1.77;;;;;;;;;;5085503;28;20106;-73
2022/02/23 14:39:44;;;;;;;8.27;2.30;;;;;;;;;;5086042;28;20075;-72